createdAt,value
2019-05-09T00:00:25.522Z,75.35
2019-05-09T00:02:57.797Z,75.50
2019-05-09T00:05:30.018Z,74.88
2019-05-09T00:08:03.455Z,74.75
2019-05-09T00:10:41.645Z,75.21
2019-05-09T00:13:10.008Z,75.46
2019-05-09T00:15:43.683Z,75.48
2019-05-09T00:18:17.328Z,75.17
2019-05-09T00:20:49.602Z,75.33
2019-05-09T00:23:23.860Z,74.77
2019-05-09T00:25:55.777Z,75.07
2019-05-09T00:28:28.047Z,75.07
2019-05-09T00:31:00.313Z,75.03
2019-05-09T00:33:34.329Z,75.04
2019-05-09T00:36:06.708Z,75.25
2019-05-09T00:38:38.932Z,75.44
2019-05-09T00:41:11.191Z,75.20
2019-05-09T00:43:43.643Z,75.35
2019-05-09T00:46:15.985Z,75.38
2019-05-09T00:48:48.259Z,75.64
2019-05-09T00:51:20.450Z,75.55
2019-05-09T00:53:53.649Z,75.71
2019-05-09T00:56:26.313Z,75.72
2019-05-09T00:58:58.708Z,75.80
2019-05-09T01:01:30.915Z,76.23
2019-05-09T01:04:04.321Z,76.17
2019-05-09T01:06:36.839Z,76.42
2019-05-09T01:09:09.078Z,76.82
2019-05-09T01:11:41.102Z,76.53
2019-05-09T01:14:14.347Z,76.37
2019-05-09T01:16:46.691Z,76.19
2019-05-09T01:19:18.905Z,76.39
2019-05-09T01:21:51.126Z,76.31
2019-05-09T01:24:23.405Z,76.32
2019-05-09T01:26:55.443Z,76.59
2019-05-09T01:29:27.680Z,76.70
2019-05-09T01:31:59.907Z,76.65
2019-05-09T01:34:33.141Z,77.01
2019-05-09T01:37:05.575Z,77.18
2019-05-09T01:39:37.828Z,77.18
2019-05-09T01:42:10.580Z,77.23
2019-05-09T01:44:44.047Z,77.21
2019-05-09T01:47:16.365Z,77.44
2019-05-09T01:49:48.634Z,77.42
2019-05-09T01:52:23.185Z,77.38
2019-05-09T01:54:55.100Z,77.29
2019-05-09T01:57:27.315Z,77.51
2019-05-09T01:59:59.587Z,77.72
2019-05-09T02:02:33.842Z,77.55
2019-05-09T02:05:05.892Z,77.60
2019-05-09T02:07:38.150Z,77.80
2019-05-09T02:10:10.510Z,77.49
2019-05-09T02:12:43.098Z,77.74
2019-05-09T02:15:15.615Z,77.54
2019-05-09T02:17:58.186Z,77.83
2019-05-09T02:20:24.059Z,77.91
2019-05-09T02:22:55.854Z,77.82
2019-05-09T02:25:28.176Z,77.83
2019-05-09T02:28:00.387Z,77.83
2019-05-09T02:30:35.787Z,77.82
2019-05-09T02:33:06.604Z,78.23
2019-05-09T02:35:47.900Z,77.98
2019-05-09T02:38:12.771Z,77.84
2019-05-09T02:40:44.975Z,77.67
2019-05-09T02:43:18.702Z,77.46
2019-05-09T02:45:52.826Z,77.51
2019-05-09T02:48:25.295Z,77.37
2019-05-09T02:51:00.249Z,77.31
2019-05-09T02:53:31.473Z,77.39
2019-05-09T02:56:03.776Z,77.36
2019-05-09T02:58:38.771Z,77.25
2019-05-09T03:01:09.954Z,77.44
2019-05-09T03:03:42.151Z,77.43
2019-05-09T03:06:14.368Z,77.57
2019-05-09T03:08:49.106Z,77.75
2019-05-09T03:11:22.893Z,77.66
2019-05-09T03:13:58.549Z,77.58
2019-05-09T03:16:31.073Z,77.44
2019-05-09T03:19:03.333Z,77.16
2019-05-09T03:21:38.775Z,77.43
2019-05-09T03:24:10.097Z,77.43
2019-05-09T03:26:42.572Z,77.15
2019-05-09T03:29:15.006Z,77.28
2019-05-09T03:31:50.188Z,77.18
2019-05-09T03:34:21.267Z,77.02
2019-05-09T03:36:53.539Z,76.99
2019-05-09T03:39:27.588Z,77.09
2019-05-09T03:42:01.088Z,76.48
2019-05-09T03:44:33.442Z,76.45
2019-05-09T03:47:05.654Z,75.92
2019-05-09T03:49:37.883Z,75.48
2019-05-09T03:52:10.135Z,75.49
2019-05-09T03:54:42.358Z,75.66
2019-05-09T03:57:14.566Z,75.93
2019-05-09T03:59:48.105Z,75.64
2019-05-09T04:02:20.475Z,75.61
2019-05-09T04:04:52.730Z,76.06
2019-05-09T04:07:24.939Z,75.31
2019-05-09T04:09:58.513Z,75.41
2019-05-09T04:12:30.909Z,75.61
2019-05-09T04:15:03.393Z,75.77
2019-05-09T04:17:35.767Z,76.21
2019-05-09T04:20:08.214Z,75.92
2019-05-09T04:22:40.707Z,75.89
2019-05-09T04:25:13.313Z,75.90
2019-05-09T04:27:47.912Z,75.69
2019-05-09T04:30:19.505Z,75.75
2019-05-09T04:32:51.746Z,76.03
2019-05-09T04:35:23.950Z,76.29
2019-05-09T04:37:58.270Z,75.92
2019-05-09T04:40:32.204Z,76.09
2019-05-09T04:43:12.001Z,75.69
2019-05-09T04:45:41.846Z,75.36
2019-05-09T04:48:20.250Z,75.48
2019-05-09T04:50:47.907Z,74.58
2019-05-09T04:53:21.448Z,74.53
2019-05-09T04:55:53.812Z,73.64
2019-05-09T04:58:27.396Z,73.27
2019-05-09T05:00:59.984Z,72.37
2019-05-09T05:03:32.277Z,71.50
2019-05-09T05:06:04.854Z,72.06
2019-05-09T05:08:37.590Z,71.33
2019-05-09T05:11:10.051Z,71.04
2019-05-09T05:13:42.349Z,70.58
2019-05-09T05:16:14.574Z,70.97
2019-05-09T05:18:47.812Z,70.72
2019-05-09T05:21:20.606Z,71.00
2019-05-09T05:23:53.060Z,70.96
2019-05-09T05:26:27.570Z,70.71
2019-05-09T05:28:59.347Z,70.61
2019-05-09T05:31:31.570Z,70.58
2019-05-09T08:27:48.705Z,59.03
2019-05-09T08:30:20.970Z,58.95
2019-05-09T08:32:53.243Z,57.68
2019-05-09T08:35:28.094Z,56.75
2019-05-09T08:38:00.492Z,57.54
2019-05-09T08:40:32.783Z,56.91
2019-05-09T08:43:07.390Z,58.45
2019-05-09T08:45:38.964Z,57.45
2019-05-09T08:48:11.216Z,57.70
2019-05-09T08:50:43.500Z,58.38
2019-05-09T08:53:18.156Z,58.49
2019-05-09T08:55:49.900Z,58.47
2019-05-09T08:58:22.253Z,58.34
2019-05-09T09:00:54.700Z,58.95
2019-05-09T09:03:29.007Z,59.67
2019-05-09T09:06:02.352Z,60.09
2019-05-09T09:08:34.622Z,60.61
2019-05-09T09:11:08.605Z,60.22
2019-05-09T09:13:40.893Z,59.99
2019-05-09T09:16:18.716Z,58.94
2019-05-09T09:18:48.140Z,58.95
2019-05-09T09:21:20.653Z,58.25
2019-05-09T09:23:52.880Z,56.89
2019-05-09T09:26:27.546Z,55.48
2019-05-09T09:28:59.034Z,53.74
2019-05-09T09:31:31.251Z,53.65
2019-05-09T09:34:03.489Z,53.12
2019-05-09T09:36:35.948Z,54.43
2019-05-09T09:39:08.272Z,55.07
2019-05-09T09:41:40.635Z,55.65
2019-05-09T09:44:13.031Z,55.40
2019-05-09T09:46:45.302Z,54.63
2019-05-09T09:49:18.141Z,53.33
2019-05-09T09:51:50.502Z,52.51
2019-05-09T09:54:22.788Z,51.93
2019-05-09T09:56:55.010Z,49.74
2019-05-09T09:59:28.260Z,47.93
2019-05-09T10:02:00.571Z,48.21
2019-05-09T10:04:32.839Z,47.45
2019-05-09T10:07:08.692Z,48.23
2019-05-09T10:09:40.073Z,47.43
2019-05-09T10:12:12.267Z,46.53
2019-05-09T10:14:44.482Z,46.57
2019-05-09T10:17:17.975Z,47.51
2019-05-09T10:19:50.660Z,48.78
2019-05-09T10:22:25.417Z,49.03
2019-05-09T10:24:59.266Z,49.06
2019-05-09T10:27:32.628Z,49.94
2019-05-09T10:30:04.980Z,51.08
2019-05-09T10:32:38.381Z,50.74
2019-05-09T10:35:10.787Z,50.86
2019-05-09T10:37:42.992Z,50.50
2019-05-09T10:40:15.331Z,50.09
2019-05-09T10:42:48.384Z,50.23
2019-05-09T10:45:20.764Z,50.11
2019-05-09T10:47:52.814Z,51.37
2019-05-09T10:50:25.039Z,48.62
2019-05-09T10:52:58.455Z,46.56
2019-05-09T10:55:31.992Z,46.85
2019-05-09T10:58:04.357Z,46.17
2019-05-09T11:00:39.325Z,45.51
2019-05-09T11:03:10.564Z,45.68
2019-05-09T11:05:42.807Z,46.11
2019-05-09T11:08:15.022Z,46.17
2019-05-09T11:10:47.550Z,45.90
2019-05-09T11:13:19.943Z,45.82
2019-05-09T11:15:52.202Z,45.29
2019-05-09T11:18:24.455Z,43.77
2019-05-09T11:20:58.094Z,44.41
2019-05-09T11:23:30.566Z,43.86
2019-05-09T11:26:02.810Z,44.65
2019-05-09T11:28:35.035Z,45.33
2019-05-09T11:31:08.130Z,45.24
2019-05-09T11:33:40.590Z,45.01
2019-05-09T11:36:13.093Z,45.17
2019-05-09T11:38:49.099Z,46.76
2019-05-09T11:41:19.844Z,44.22
2019-05-09T11:43:52.053Z,42.32
2019-05-09T11:46:24.279Z,41.43
2019-05-09T11:48:58.518Z,41.43
2019-05-09T11:51:30.852Z,39.90
2019-05-09T11:54:03.081Z,36.51
2019-05-09T11:56:35.285Z,36.78
2019-05-09T11:59:07.986Z,38.12
2019-05-09T12:01:40.537Z,39.99
2019-05-09T12:04:12.812Z,42.33
2019-05-09T12:06:45.102Z,38.02
2019-05-09T12:09:17.366Z,34.53
2019-05-09T12:11:49.752Z,33.94
2019-05-09T12:14:22.367Z,33.02
2019-05-09T12:16:54.991Z,33.68
2019-05-09T12:19:29.548Z,34.73
2019-05-09T12:22:01.125Z,36.21
2019-05-09T12:24:33.447Z,38.01
2019-05-09T12:27:05.723Z,37.94
2019-05-09T12:29:38.699Z,38.31
2019-05-09T12:32:11.055Z,39.05
2019-05-09T12:34:43.343Z,40.63
2019-05-09T12:37:18.230Z,39.00
2019-05-09T12:39:50.534Z,34.67
2019-05-09T12:42:23.751Z,29.08
2019-05-09T12:44:58.747Z,28.85
2019-05-09T12:47:31.391Z,25.63
2019-05-09T12:50:08.448Z,26.05
2019-05-09T12:52:40.193Z,27.78
2019-05-09T12:55:14.553Z,29.57
2019-05-09T12:57:48.937Z,30.81
2019-05-09T13:00:20.765Z,30.56
2019-05-09T13:02:53.032Z,32.50
2019-05-09T13:05:27.394Z,33.69
2019-05-09T13:07:59.320Z,34.95
2019-05-09T13:10:31.525Z,34.61
2019-05-09T13:13:08.769Z,33.51
2019-05-09T13:15:40.058Z,32.24
2019-05-09T13:18:22.002Z,32.36
2019-05-09T13:20:48.748Z,34.09
2019-05-09T13:23:21.194Z,30.53
2019-05-09T13:25:53.627Z,29.26
2019-05-09T13:28:25.891Z,28.74
2019-05-09T13:30:58.553Z,29.51
2019-05-09T13:33:31.335Z,28.35
2019-05-09T13:36:03.633Z,28.63
2019-05-09T13:38:37.859Z,30.00
2019-05-09T13:41:09.967Z,30.93
2019-05-09T13:43:51.555Z,33.24
2019-05-09T13:46:18.472Z,33.18
2019-05-09T13:49:05.769Z,36.51
2019-05-09T13:51:24.672Z,37.32
2019-05-09T13:53:59.070Z,36.05
2019-05-09T13:56:30.894Z,34.56
2019-05-09T13:59:03.332Z,35.92
2019-05-09T14:01:37.617Z,34.75
2019-05-09T14:04:09.554Z,32.94
2019-05-09T14:06:41.952Z,32.21
2019-05-09T14:09:14.173Z,33.77
2019-05-09T14:11:47.951Z,37.83
2019-05-09T14:14:20.403Z,40.14
2019-05-09T14:16:52.598Z,40.08
2019-05-09T14:19:36.187Z,40.43
2019-05-09T14:21:59.901Z,40.99
2019-05-09T14:24:32.150Z,42.55
2019-05-09T14:27:04.482Z,42.37
2019-05-09T14:29:38.396Z,43.88
2019-05-09T14:32:10.730Z,42.76
2019-05-09T14:34:44.192Z,42.17
2019-05-09T14:37:18.028Z,40.28
2019-05-09T14:39:58.401Z,39.68
2019-05-09T14:42:24.470Z,40.42
2019-05-09T14:44:58.481Z,40.66
2019-05-09T14:47:30.628Z,40.96
2019-05-09T14:50:03.087Z,39.73
2019-05-09T14:52:38.182Z,40.77
2019-05-09T14:55:09.254Z,41.01
2019-05-09T14:57:41.489Z,41.04
2019-05-09T15:00:13.722Z,40.72
2019-05-09T15:02:45.946Z,39.89
2019-05-09T15:05:18.944Z,39.82
2019-05-09T15:07:53.779Z,40.23
2019-05-09T15:10:25.520Z,40.72
2019-05-09T15:12:58.537Z,43.91
2019-05-09T15:15:32.718Z,44.39
2019-05-09T15:18:07.955Z,44.43
2019-05-09T15:20:39.222Z,44.60
2019-05-09T15:23:11.422Z,45.49
2019-05-09T15:25:43.691Z,45.44
2019-05-09T15:28:17.565Z,47.16
2019-05-09T15:30:50.001Z,47.56
2019-05-09T15:33:22.227Z,47.37
2019-05-09T15:35:55.079Z,48.86
2019-05-09T15:38:28.977Z,48.97
2019-05-09T15:41:01.593Z,47.92
2019-05-09T15:43:34.191Z,48.32
2019-05-09T15:46:08.410Z,48.95
2019-05-09T15:48:41.724Z,49.18
2019-05-09T15:51:14.848Z,49.81
2019-05-09T15:53:48.658Z,50.08
2019-05-09T15:56:21.084Z,51.12
2019-05-09T15:58:53.437Z,50.13
2019-05-09T16:01:27.875Z,50.44
2019-05-09T16:04:00.131Z,47.85
2019-05-09T16:06:33.371Z,46.69
2019-05-09T16:09:09.306Z,47.12
2019-05-09T16:11:43.113Z,45.86
2019-05-09T16:14:18.391Z,45.85
2019-05-09T16:16:50.996Z,45.50
2019-05-09T16:19:25.287Z,45.61
2019-05-09T16:21:57.508Z,46.25
2019-05-09T16:24:29.776Z,46.44
2019-05-09T16:27:02.085Z,47.18
2019-05-09T16:29:34.211Z,48.60
2019-05-09T16:32:08.828Z,47.64
2019-05-09T16:34:41.607Z,47.80
2019-05-09T16:37:13.846Z,46.72
2019-05-09T16:39:47.635Z,45.13
2019-05-09T16:42:21.422Z,44.66
2019-05-09T16:44:54.088Z,44.81
2019-05-09T16:47:28.712Z,44.68
2019-05-09T16:50:01.261Z,45.20
2019-05-09T16:52:34.942Z,47.31
2019-05-09T16:55:08.201Z,46.66
2019-05-09T16:57:41.998Z,48.09
2019-05-09T17:00:14.374Z,45.99
2019-05-09T17:02:48.110Z,46.19
2019-05-09T17:05:21.296Z,45.99
2019-05-09T17:07:55.452Z,45.18
2019-05-09T17:10:28.426Z,45.01
2019-05-09T17:13:01.381Z,45.60
2019-05-09T17:15:35.547Z,44.69
2019-05-09T17:18:10.065Z,45.77
2019-05-09T17:20:42.217Z,46.11
2019-05-09T17:23:15.752Z,47.74
2019-05-09T17:25:48.305Z,46.64
2019-05-09T17:28:20.898Z,47.62
2019-05-09T17:30:53.312Z,48.26
2019-05-09T17:33:28.455Z,46.74
2019-05-09T17:35:59.653Z,41.94
2019-05-09T17:38:32.169Z,40.57
2019-05-09T17:41:05.478Z,41.29
2019-05-09T17:43:38.351Z,41.06
2019-05-09T17:46:10.811Z,42.37
2019-05-09T17:48:43.113Z,43.90
2019-05-09T17:51:18.662Z,45.22
2019-05-09T17:53:52.010Z,46.64
2019-05-09T17:56:23.711Z,48.37
2019-05-09T17:58:57.871Z,49.95
2019-05-09T18:01:29.944Z,50.80
2019-05-09T18:04:02.578Z,51.30
2019-05-09T18:06:34.607Z,51.46
2019-05-09T18:09:08.428Z,51.88
2019-05-09T18:11:41.449Z,52.58
2019-05-09T18:14:13.918Z,52.84
2019-05-09T18:16:47.773Z,53.37
2019-05-09T18:19:20.383Z,53.63
2019-05-09T18:21:52.638Z,53.92
2019-05-09T18:24:25.224Z,54.58
2019-05-09T18:26:58.381Z,54.37
2019-05-09T18:29:30.908Z,54.74
2019-05-09T18:32:03.127Z,54.93
2019-05-09T18:34:37.859Z,54.77
2019-05-09T18:37:09.407Z,54.89
2019-05-09T18:39:41.673Z,54.77
2019-05-09T18:42:13.959Z,54.73
2019-05-09T18:44:47.658Z,54.57
2019-05-09T18:47:21.250Z,55.03
2019-05-09T18:49:53.543Z,54.62
2019-05-09T18:52:25.755Z,54.89
2019-05-09T18:54:58.127Z,55.44
2019-05-09T18:57:30.696Z,55.77
2019-05-09T19:00:03.080Z,55.97
2019-05-09T19:02:37.714Z,56.23
2019-05-09T19:05:12.956Z,56.39
2019-05-09T19:07:46.006Z,56.25
2019-05-09T19:10:18.275Z,56.60
2019-05-09T19:12:50.530Z,56.74
2019-05-09T19:15:22.741Z,57.01
2019-05-09T19:17:56.130Z,56.74
2019-05-09T19:20:28.341Z,57.30
2019-05-09T19:23:00.591Z,57.49
2019-05-09T19:25:32.936Z,57.99
2019-05-09T19:28:05.390Z,59.54
2019-05-09T19:30:37.526Z,60.40
2019-05-09T19:33:09.729Z,60.31
2019-05-09T19:35:42.332Z,61.02
2019-05-09T19:38:14.594Z,60.46
2019-05-09T19:40:47.076Z,61.40
2019-05-09T19:43:19.353Z,61.00
2019-05-09T19:45:52.615Z,61.20
2019-05-09T19:48:24.840Z,61.57
2019-05-09T19:50:59.351Z,61.70
2019-05-09T19:53:31.654Z,61.63
2019-05-09T19:56:04.303Z,61.83
2019-05-09T19:58:36.572Z,61.26
2019-05-09T20:01:08.961Z,61.63
2019-05-09T20:03:41.249Z,61.28
2019-05-09T20:06:16.463Z,61.79
2019-05-09T20:08:47.275Z,61.96
2019-05-09T20:11:19.692Z,61.92
2019-05-09T20:13:52.398Z,61.96
2019-05-09T20:16:24.696Z,62.52
2019-05-09T20:18:56.950Z,61.59
2019-05-09T20:21:29.595Z,66.18
2019-05-09T20:24:02.055Z,68.27
2019-05-09T20:26:34.457Z,71.78
2019-05-09T20:29:06.759Z,72.14
2019-05-09T20:31:39.065Z,73.68
2019-05-09T20:34:11.274Z,75.33
2019-05-09T20:36:43.543Z,74.99
2019-05-09T20:39:15.821Z,76.17
2019-05-09T20:41:48.010Z,75.13
2019-05-09T20:44:20.339Z,76.49
2019-05-09T20:46:52.567Z,76.98
2019-05-09T20:49:24.800Z,77.22
2019-05-09T20:51:58.240Z,77.35
2019-05-09T20:54:30.585Z,77.45
2019-05-09T20:57:03.815Z,76.46
2019-05-09T20:59:36.058Z,77.28
2019-05-09T21:02:08.348Z,78.00
2019-05-09T21:04:40.584Z,78.20
2019-05-09T21:07:13.274Z,78.00
2019-05-09T21:09:45.525Z,78.79
2019-05-09T21:12:17.835Z,78.99
2019-05-09T21:14:50.070Z,78.76
2019-05-09T21:17:22.547Z,78.28
2019-05-09T21:19:54.797Z,78.58
2019-05-09T21:22:26.822Z,78.58
2019-05-09T21:24:59.071Z,79.03
2019-05-09T21:27:31.304Z,78.71
2019-05-09T21:30:03.500Z,78.04
2019-05-09T21:32:37.006Z,78.20
2019-05-09T21:35:09.491Z,78.06
2019-05-09T21:37:41.715Z,78.58
2019-05-09T21:40:13.991Z,78.73
2019-05-09T21:42:46.309Z,78.45
2019-05-09T21:45:18.570Z,78.44
2019-05-09T21:47:50.891Z,78.80
2019-05-09T21:50:23.242Z,79.31
2019-05-09T21:52:56.601Z,79.45
2019-05-09T21:55:28.823Z,79.65
2019-05-09T21:58:00.846Z,78.90
2019-05-09T22:00:34.376Z,78.77
2019-05-09T22:03:06.921Z,78.86
2019-05-09T22:05:39.182Z,79.40
2019-05-09T22:08:11.504Z,78.95
2019-05-09T22:10:44.046Z,79.44
2019-05-09T22:13:16.224Z,79.51
2019-05-09T22:15:48.801Z,78.84
2019-05-09T22:18:21.275Z,78.80
2019-05-09T22:20:53.620Z,78.91
2019-05-09T22:23:25.995Z,79.07
2019-05-09T22:25:58.315Z,78.52
2019-05-09T22:28:30.561Z,78.90
2019-05-09T22:31:02.803Z,79.02
2019-05-09T22:33:35.095Z,78.95
2019-05-09T22:36:07.315Z,79.00
2019-05-09T22:38:43.168Z,78.75
2019-05-09T22:41:13.529Z,78.64
2019-05-09T22:43:48.083Z,78.62
2019-05-09T22:46:20.282Z,77.83
2019-05-09T22:48:52.735Z,77.46
2019-05-09T22:51:25.161Z,77.84
2019-05-09T22:54:11.590Z,77.45
2019-05-09T22:56:31.411Z,77.98
2019-05-09T22:59:03.670Z,78.18
2019-05-09T23:01:35.873Z,77.49
2019-05-09T23:04:08.126Z,77.40
2019-05-09T23:06:40.344Z,77.38
2019-05-09T23:09:12.587Z,76.71
2019-05-09T23:11:44.858Z,77.66
2019-05-09T23:14:17.083Z,77.63
2019-05-09T23:16:50.679Z,77.05
2019-05-09T23:19:23.223Z,77.20
2019-05-09T23:21:55.496Z,77.01
2019-05-09T23:24:28.903Z,77.75
2019-05-09T23:27:01.447Z,76.94
2019-05-09T23:29:35.755Z,77.35
2019-05-09T23:32:07.842Z,77.11
2019-05-09T23:34:40.079Z,77.49
2019-05-09T23:37:12.330Z,77.98
2019-05-09T23:39:44.544Z,77.48
2019-05-09T23:42:16.747Z,76.48
2019-05-09T23:44:48.837Z,77.62
2019-05-09T23:47:21.043Z,77.99
2019-05-09T23:49:53.271Z,78.50
2019-05-09T23:52:25.501Z,78.47
2019-05-09T23:54:57.831Z,78.46
2019-05-09T23:57:30.123Z,78.26
